Deer Park, Alabama
Current Conditions -  °F | °C
As of 10:56 PM on Monday 20 Oct 2014 (Local Time) from KMOB Reporting Station
Scattered Clouds Scattered Clouds  
Wind Chill: 54°   Ceiling: Unl
Heat Index: 54°   Visibility: 8mi
Dew Point: 53°   Wind: 0mph
Humidity: 97%   Direction: NA
Pressure: 30.03"   Gusts: NA
Location:  31.22°N, 88.31°W
Report Text: KMOB 210356Z 00000KT 8SM SCT200 12/12 A3003 RMK AO2 SLP167 T01220117
Loading
Personal Weather Stations






























Interactive Weather Map
Tropical Storm Tracking
New forecast layout! Learn more

10-Day Weather Forecast

Advertisements
Track Severe Weather on mobile